createdAt,value
2023-03-05T00:00:00.841Z,77.54
2023-03-05T00:02:28.611Z,78.61
2023-03-05T00:04:56.754Z,78.63
2023-03-05T00:07:24.557Z,79.15
2023-03-05T00:09:52.350Z,77.67
2023-03-05T00:12:20.094Z,78.28
2023-03-05T00:14:47.800Z,77.96
2023-03-05T00:17:16.919Z,77.93
2023-03-05T00:19:44.713Z,77.78
2023-03-05T00:22:12.434Z,78.28
2023-03-05T00:24:40.166Z,78.79
2023-03-05T00:27:07.920Z,78.77
2023-03-05T00:29:35.623Z,78.98
2023-03-05T00:32:03.406Z,78.02
2023-03-05T00:34:32.560Z,78.48
2023-03-05T00:37:00.290Z,78.03
2023-03-05T00:39:29.003Z,78.28
2023-03-05T00:41:56.833Z,78.64
2023-03-05T00:44:24.626Z,78.70
2023-03-05T00:46:52.554Z,78.31
2023-03-05T00:49:20.357Z,77.80
2023-03-05T00:51:49.481Z,78.10
2023-03-05T00:54:17.255Z,77.23
2023-03-05T00:56:45.017Z,79.32
2023-03-05T00:59:12.804Z,78.88
2023-03-05T01:01:40.897Z,79.37
2023-03-05T01:04:08.885Z,80.01
2023-03-05T01:06:36.667Z,79.41
2023-03-05T01:09:05.792Z,79.44
2023-03-05T01:11:33.629Z,78.40
2023-03-05T01:14:01.438Z,79.71
2023-03-05T01:16:29.399Z,79.94
2023-03-05T01:18:57.160Z,79.58
2023-03-05T01:21:24.857Z,78.34
2023-03-05T01:23:52.574Z,78.46
2023-03-05T01:26:21.701Z,78.95
2023-03-05T01:28:49.440Z,77.99
2023-03-05T01:31:17.368Z,77.61
2023-03-05T01:33:45.179Z,78.57
2023-03-05T01:36:16.811Z,80.45
2023-03-05T01:38:46.205Z,80.82
2023-03-05T01:41:16.231Z,81.85
2023-03-05T01:43:52.870Z,80.88
2023-03-05T01:46:30.443Z,81.30
2023-03-05T01:49:04.682Z,79.68
2023-03-05T01:51:37.968Z,80.21
2023-03-05T01:54:08.284Z,80.68
2023-03-05T01:56:36.537Z,79.75
2023-03-05T01:59:05.757Z,80.09
2023-03-05T02:01:39.691Z,80.34
2023-03-05T02:04:09.568Z,80.28
2023-03-05T02:06:38.220Z,81.07
2023-03-05T02:09:06.272Z,79.51
2023-03-05T02:11:34.772Z,80.92
2023-03-05T02:14:03.345Z,80.13
2023-03-05T02:16:36.833Z,79.52
2023-03-05T02:19:05.598Z,81.27
2023-03-05T02:21:40.211Z,80.46
2023-03-05T02:24:08.772Z,81.34
2023-03-05T02:26:36.529Z,79.02
2023-03-05T02:29:08.941Z,76.83
2023-03-05T02:31:38.989Z,75.53
2023-03-05T02:34:07.247Z,74.61
2023-03-05T02:36:35.182Z,74.64
2023-03-05T02:39:04.955Z,74.28
2023-03-05T02:41:32.735Z,72.60
2023-03-05T02:44:00.536Z,73.09
2023-03-05T02:46:28.314Z,74.10
2023-03-05T02:48:56.111Z,77.00
2023-03-05T02:51:23.833Z,77.27
2023-03-05T02:53:51.650Z,76.42
2023-03-05T02:56:20.759Z,76.20
2023-03-05T02:58:48.482Z,78.30
2023-03-05T03:01:16.317Z,78.61
2023-03-05T03:03:44.073Z,77.40
2023-03-05T03:06:11.768Z,78.83
2023-03-05T03:08:39.522Z,79.08
2023-03-05T03:11:08.304Z,79.04
2023-03-05T03:13:37.404Z,79.92
2023-03-05T03:16:07.227Z,79.21
2023-03-05T03:18:35.190Z,78.63
2023-03-05T03:21:02.969Z,78.25
2023-03-05T03:23:31.051Z,76.99
2023-03-05T03:25:59.185Z,77.02
2023-03-05T03:28:27.092Z,76.47
2023-03-05T03:30:56.300Z,77.63
2023-03-05T03:33:24.335Z,76.49
2023-03-05T03:35:52.166Z,77.20
2023-03-05T03:38:19.947Z,75.92
2023-03-05T03:40:47.748Z,76.53
2023-03-05T03:43:15.512Z,75.85
2023-03-05T03:45:43.746Z,74.23
2023-03-05T03:48:13.151Z,74.87
2023-03-05T03:50:41.655Z,73.93
2023-03-05T03:53:09.738Z,74.03
2023-03-05T03:55:37.493Z,73.71
2023-03-05T03:58:05.364Z,74.10
2023-03-05T04:00:33.167Z,73.71
2023-03-05T04:03:01.148Z,73.12
2023-03-05T04:05:30.643Z,74.31
2023-03-05T04:07:59.943Z,74.72
2023-03-05T04:10:27.766Z,73.64
2023-03-05T04:12:55.527Z,72.71
2023-03-05T04:15:23.544Z,72.47
2023-03-05T04:17:51.276Z,72.19
2023-03-05T04:20:19.082Z,72.85
2023-03-05T04:22:48.146Z,72.53
2023-03-05T04:25:16.047Z,71.72
2023-03-05T04:27:43.833Z,70.86
2023-03-05T04:30:15.611Z,71.25
2023-03-05T04:32:43.733Z,70.46
2023-03-05T04:35:11.600Z,69.07
2023-03-05T04:37:39.399Z,69.94
2023-03-05T04:40:10.156Z,68.54
2023-03-05T04:42:38.362Z,68.29
2023-03-05T04:45:07.748Z,69.48
2023-03-05T04:47:35.600Z,68.71
2023-03-05T04:50:03.636Z,67.74
2023-03-05T04:52:31.504Z,67.72
2023-03-05T04:54:59.287Z,65.58
2023-03-05T04:57:28.408Z,66.75
2023-03-05T04:59:56.174Z,66.79
2023-03-05T05:02:23.945Z,66.74
2023-03-05T05:04:53.931Z,67.67
2023-03-05T05:07:21.816Z,68.59
2023-03-05T05:09:49.648Z,68.29
2023-03-05T05:12:17.532Z,68.08
2023-03-05T05:14:46.772Z,67.58
2023-03-05T05:17:14.590Z,69.01
2023-03-05T05:19:42.624Z,67.66
2023-03-05T05:22:10.538Z,68.00
2023-03-05T05:24:38.372Z,68.02
2023-03-05T05:27:06.240Z,68.17
2023-03-05T05:29:34.050Z,67.69
2023-03-05T05:32:03.163Z,67.25
2023-03-05T05:34:30.930Z,67.94
2023-03-05T05:36:58.639Z,67.11
2023-03-05T05:39:26.444Z,67.75
2023-03-05T05:41:54.857Z,66.63
2023-03-05T05:44:22.608Z,66.88
2023-03-05T05:46:50.344Z,67.75
2023-03-05T05:49:19.523Z,68.62
2023-03-05T05:51:47.307Z,68.59
2023-03-05T05:54:15.858Z,68.15
2023-03-05T05:56:43.660Z,69.46
2023-03-05T05:59:11.759Z,68.72
2023-03-05T06:01:39.584Z,68.88
2023-03-05T06:04:07.389Z,69.57
2023-03-05T06:06:36.561Z,68.91
2023-03-05T06:09:04.850Z,68.36
2023-03-05T06:11:34.015Z,68.32
2023-03-05T06:14:02.895Z,68.94
2023-03-05T06:16:31.056Z,70.30
2023-03-05T06:18:58.955Z,69.00
2023-03-05T06:21:27.152Z,68.74
2023-03-05T06:23:56.293Z,68.93
2023-03-05T06:26:24.109Z,70.43
2023-03-05T06:28:52.520Z,69.88
2023-03-05T06:31:22.409Z,69.52
2023-03-05T06:33:50.815Z,70.75
2023-03-05T06:36:20.581Z,69.29
2023-03-05T06:38:49.128Z,69.44
2023-03-05T06:41:21.265Z,68.61
2023-03-05T06:43:50.136Z,68.97
2023-03-05T06:46:20.099Z,69.65
2023-03-05T06:48:48.573Z,71.71
2023-03-05T06:51:18.414Z,72.15
2023-03-05T06:53:49.244Z,71.40
2023-03-05T06:56:19.731Z,69.74
2023-03-05T06:58:49.043Z,68.30
2023-03-05T07:01:17.655Z,67.01
2023-03-05T07:03:45.480Z,67.13
2023-03-05T07:06:15.839Z,68.00
2023-03-05T07:08:44.725Z,67.81
2023-03-05T07:11:14.477Z,69.13
2023-03-05T07:13:44.456Z,66.32
2023-03-05T07:16:16.434Z,68.35
2023-03-05T07:18:44.308Z,67.98
2023-03-05T07:21:15.928Z,68.35
2023-03-05T07:23:43.724Z,68.39
2023-03-05T07:26:12.397Z,67.94
2023-03-05T07:28:40.756Z,67.21
2023-03-05T07:31:13.526Z,66.44
2023-03-05T07:33:41.429Z,67.49
2023-03-05T07:36:09.821Z,68.05
2023-03-05T07:38:38.116Z,67.52
2023-03-05T07:41:07.435Z,68.99
2023-03-05T07:43:35.171Z,68.15
2023-03-05T07:46:05.669Z,67.25
2023-03-05T07:48:34.977Z,67.25
2023-03-05T07:51:03.393Z,67.24
2023-03-05T07:53:31.427Z,68.06
2023-03-05T07:55:59.202Z,66.79
2023-03-05T07:58:27.327Z,66.73
2023-03-05T08:00:55.127Z,65.77
2023-03-05T08:03:22.900Z,65.78
2023-03-05T08:05:51.979Z,66.18
2023-03-05T08:08:19.824Z,66.34
2023-03-05T08:10:47.587Z,67.45
2023-03-05T08:13:15.400Z,67.60
2023-03-05T08:15:43.212Z,65.50
2023-03-05T08:18:11.043Z,66.20
2023-03-05T08:20:38.809Z,65.53
2023-03-05T08:23:07.894Z,65.47
2023-03-05T08:25:35.696Z,67.03
2023-03-05T08:28:03.460Z,66.21
2023-03-05T08:30:31.261Z,66.35
2023-03-05T08:32:58.963Z,65.92
2023-03-05T08:35:26.697Z,66.01
2023-03-05T08:37:54.465Z,66.08
2023-03-05T08:40:23.608Z,65.55
2023-03-05T08:42:52.240Z,66.75
2023-03-05T08:45:20.011Z,66.65
2023-03-05T08:47:47.793Z,65.49
2023-03-05T08:50:15.536Z,65.19
2023-03-05T08:52:43.237Z,65.55
2023-03-05T08:55:12.503Z,65.05
2023-03-05T08:57:41.750Z,64.90
2023-03-05T09:00:12.555Z,64.89
2023-03-05T09:02:40.485Z,64.91
2023-03-05T09:05:09.280Z,65.89
2023-03-05T09:07:37.923Z,65.26
2023-03-05T09:10:06.867Z,65.15
2023-03-05T09:12:34.558Z,65.72
2023-03-05T09:15:03.753Z,64.63
2023-03-05T09:17:31.468Z,64.05
2023-03-05T09:19:59.161Z,63.70
2023-03-05T09:22:26.977Z,63.64
2023-03-05T09:24:54.688Z,63.87
2023-03-05T09:27:22.419Z,63.70
2023-03-05T09:29:50.821Z,62.43
2023-03-05T09:32:19.903Z,61.74
2023-03-05T09:34:47.703Z,61.26
2023-03-05T09:37:15.449Z,61.67
2023-03-05T09:39:43.205Z,62.25
2023-03-05T09:42:29.834Z,61.61
2023-03-05T09:45:12.068Z,63.07
2023-03-05T09:47:54.132Z,61.50
2023-03-05T09:50:36.005Z,59.83
2023-03-05T09:53:09.028Z,60.32
2023-03-05T09:55:40.888Z,61.82
2023-03-05T09:58:14.158Z,60.94
2023-03-05T10:00:45.226Z,61.16
2023-03-05T10:03:20.849Z,59.98
2023-03-05T10:06:01.552Z,60.25
2023-03-05T10:08:41.381Z,60.20
2023-03-05T10:11:19.974Z,59.57
2023-03-05T10:13:48.725Z,58.98
2023-03-05T10:16:37.495Z,59.14
2023-03-05T10:19:15.910Z,58.68
2023-03-05T10:21:51.430Z,59.10
2023-03-05T10:24:27.936Z,59.04
2023-03-05T10:27:04.289Z,57.33
2023-03-05T10:29:56.275Z,57.70
2023-03-05T10:32:37.693Z,60.52
2023-03-05T10:35:23.454Z,58.38
2023-03-05T10:38:15.111Z,56.45
2023-03-05T10:40:48.001Z,57.72
2023-03-05T10:43:25.088Z,57.97
2023-03-05T10:45:55.148Z,58.23
2023-03-05T10:48:32.145Z,57.13
2023-03-05T10:51:12.060Z,57.00
2023-03-05T10:53:50.545Z,56.26
2023-03-05T10:56:22.635Z,55.64
2023-03-05T10:58:52.729Z,56.07
2023-03-05T11:01:23.037Z,56.15
2023-03-05T11:03:54.340Z,57.14
2023-03-05T11:06:35.699Z,58.10
2023-03-05T11:09:29.137Z,57.87
2023-03-05T11:12:15.499Z,58.51
2023-03-05T11:14:45.621Z,57.51
2023-03-05T11:17:29.466Z,59.02
2023-03-05T11:19:57.468Z,57.04
2023-03-05T11:22:27.040Z,57.76
2023-03-05T11:25:14.173Z,57.70
2023-03-05T11:27:54.345Z,58.39
2023-03-05T11:30:26.628Z,58.75
2023-03-05T11:33:10.432Z,58.28
2023-03-05T11:35:40.894Z,58.48
2023-03-05T11:38:19.646Z,58.25
2023-03-05T11:40:48.228Z,57.97
2023-03-05T11:43:18.312Z,57.71
2023-03-05T11:45:48.475Z,58.30
2023-03-05T11:48:21.244Z,57.44
2023-03-05T11:50:53.532Z,57.02
2023-03-05T11:53:28.281Z,57.80
2023-03-05T11:56:00.327Z,58.07
2023-03-05T11:58:33.300Z,57.05
2023-03-05T12:01:04.063Z,57.04
2023-03-05T12:03:34.710Z,57.68
2023-03-05T12:06:11.984Z,57.72
2023-03-05T12:08:45.628Z,57.36
2023-03-05T12:11:18.941Z,56.53
2023-03-05T12:13:50.230Z,55.86
2023-03-05T12:16:34.443Z,56.94
2023-03-05T12:19:16.836Z,57.13
2023-03-05T12:21:50.508Z,57.61
2023-03-05T12:24:39.944Z,55.98
2023-03-05T12:27:14.901Z,56.70
2023-03-05T12:29:50.784Z,57.67
2023-03-05T12:33:01.286Z,58.46
2023-03-05T12:35:31.760Z,57.48
2023-03-05T12:38:28.175Z,57.13
2023-03-05T12:41:35.679Z,57.84
2023-03-05T12:44:23.766Z,57.43
2023-03-05T12:47:19.222Z,56.75
2023-03-05T12:49:49.065Z,56.51
2023-03-05T12:52:25.119Z,55.99
2023-03-05T12:55:21.383Z,56.52
2023-03-05T12:57:54.589Z,57.21
2023-03-05T13:00:28.426Z,57.04
2023-03-05T13:02:59.797Z,55.74
2023-03-05T13:05:31.385Z,54.35
2023-03-05T13:08:15.487Z,55.47
2023-03-05T13:10:43.801Z,55.28
2023-03-05T13:13:15.916Z,54.99
2023-03-05T13:15:48.304Z,55.61
2023-03-05T13:18:21.415Z,54.89
2023-03-05T13:20:52.142Z,55.16
2023-03-05T13:23:23.539Z,54.96
2023-03-05T13:26:03.528Z,56.31
2023-03-05T13:28:32.624Z,55.80
2023-03-05T13:31:04.600Z,55.63
2023-03-05T13:33:34.339Z,54.72
2023-03-05T13:36:02.777Z,54.92
2023-03-05T13:38:35.687Z,55.05
2023-03-05T13:41:06.221Z,55.79
2023-03-05T13:43:33.972Z,56.88
2023-03-05T13:46:03.352Z,56.03
2023-03-05T13:48:31.145Z,56.85
2023-03-05T13:50:59.374Z,56.00
2023-03-05T13:53:28.868Z,55.75
2023-03-05T13:55:59.595Z,54.14
2023-03-05T13:58:52.332Z,54.06
2023-03-05T14:01:30.074Z,55.04
2023-03-05T14:04:00.685Z,54.44
2023-03-05T14:06:30.970Z,53.30
2023-03-05T14:09:06.773Z,53.94
2023-03-05T14:11:36.714Z,54.24
2023-03-05T14:14:10.698Z,53.57
2023-03-05T14:16:39.920Z,53.61
2023-03-05T14:19:09.146Z,53.22
2023-03-05T14:21:48.133Z,54.64
2023-03-05T14:24:22.756Z,54.01
2023-03-05T14:26:52.949Z,54.76
2023-03-05T14:29:24.222Z,54.66
2023-03-05T14:31:55.731Z,55.30
2023-03-05T14:34:28.047Z,53.17
2023-03-05T14:36:59.017Z,53.20
2023-03-05T14:39:39.628Z,53.57
2023-03-05T14:42:27.890Z,52.89
2023-03-05T14:44:57.958Z,52.69
2023-03-05T14:47:28.308Z,52.24
2023-03-05T14:49:56.039Z,52.01
2023-03-05T14:52:26.044Z,51.61
2023-03-05T14:54:54.817Z,51.87
2023-03-05T14:57:24.843Z,52.10
2023-03-05T14:59:52.623Z,52.81
2023-03-05T15:02:22.022Z,52.46
2023-03-05T15:04:51.254Z,51.79
2023-03-05T15:07:21.571Z,52.91
2023-03-05T15:09:49.332Z,53.90
2023-03-05T15:12:18.264Z,53.66
2023-03-05T15:14:46.045Z,53.07
2023-03-05T15:17:20.956Z,52.38
2023-03-05T15:19:49.348Z,52.90
2023-03-05T15:22:18.648Z,53.57
2023-03-05T15:24:46.720Z,54.37
2023-03-05T15:27:14.632Z,53.46
2023-03-05T15:29:42.484Z,53.89
2023-03-05T15:32:10.481Z,54.31
2023-03-05T15:34:38.351Z,53.29
2023-03-05T15:37:06.144Z,55.16
2023-03-05T15:39:35.194Z,54.70
2023-03-05T15:42:04.487Z,56.41
2023-03-05T15:44:33.657Z,55.74
2023-03-05T15:47:01.355Z,56.76
2023-03-05T15:49:29.209Z,56.25
2023-03-05T15:51:57.026Z,54.58
2023-03-05T15:54:25.217Z,54.24
2023-03-05T15:56:54.618Z,55.76
2023-03-05T15:59:22.460Z,55.25
2023-03-05T16:01:52.087Z,55.59
2023-03-05T16:04:20.187Z,54.71
2023-03-05T16:06:50.863Z,55.14
2023-03-05T16:09:21.782Z,54.69
2023-03-05T16:11:51.433Z,54.54
2023-03-05T16:14:23.356Z,55.67
2023-03-05T16:16:52.260Z,54.81
2023-03-05T16:19:21.195Z,55.06
2023-03-05T16:21:49.408Z,55.15
2023-03-05T16:24:17.142Z,56.18
2023-03-05T16:26:44.887Z,56.73
2023-03-05T16:29:13.193Z,56.45
2023-03-05T16:31:43.196Z,56.43
2023-03-05T16:34:13.937Z,56.48
2023-03-05T16:36:47.061Z,56.30
2023-03-05T16:39:14.933Z,55.67
2023-03-05T16:41:42.710Z,55.65
2023-03-05T16:44:10.969Z,56.13
2023-03-05T16:46:41.378Z,55.08
2023-03-05T16:49:11.255Z,56.14
2023-03-05T16:51:39.185Z,56.51
2023-03-05T16:54:09.641Z,56.77
2023-03-05T16:56:37.984Z,56.16
2023-03-05T16:59:05.768Z,56.39
2023-03-05T17:01:33.801Z,57.14
2023-03-05T17:04:02.204Z,56.80
2023-03-05T17:06:32.597Z,56.43
2023-03-05T17:09:00.669Z,56.45
2023-03-05T17:11:28.483Z,56.32
2023-03-05T17:13:56.241Z,56.32
2023-03-05T17:16:24.924Z,55.72
2023-03-05T17:18:52.838Z,56.05
2023-03-05T17:21:20.556Z,56.47
2023-03-05T17:23:49.699Z,56.56
2023-03-05T17:26:21.839Z,55.89
2023-03-05T17:28:49.911Z,55.64
2023-03-05T17:31:17.706Z,56.11
2023-03-05T17:33:45.545Z,56.60
2023-03-05T17:36:18.390Z,55.70
2023-03-05T17:38:47.612Z,57.85
2023-03-05T17:41:18.350Z,56.66
2023-03-05T17:43:46.481Z,56.10
2023-03-05T17:46:14.887Z,56.81
2023-03-05T17:48:43.020Z,56.46
2023-03-05T17:51:13.638Z,56.42
2023-03-05T17:53:41.554Z,57.04
2023-03-05T17:56:10.643Z,57.60
2023-03-05T17:58:39.954Z,58.62
2023-03-05T18:01:08.656Z,58.29
2023-03-05T18:03:37.190Z,58.20
2023-03-05T18:06:05.349Z,57.75
2023-03-05T18:08:33.285Z,56.93
2023-03-05T18:11:01.281Z,56.47
2023-03-05T18:13:29.180Z,58.07
2023-03-05T18:16:00.387Z,58.22
2023-03-05T18:18:28.389Z,57.35
2023-03-05T18:20:56.696Z,58.24
2023-03-05T18:23:24.445Z,58.68
2023-03-05T18:25:52.239Z,58.66
2023-03-05T18:28:20.104Z,58.01
2023-03-05T18:30:48.920Z,58.60
2023-03-05T18:33:20.586Z,58.97
2023-03-05T18:35:51.944Z,58.97
2023-03-05T18:38:20.415Z,58.99
2023-03-05T18:40:51.102Z,59.29
2023-03-05T18:43:20.407Z,59.31
2023-03-05T18:45:48.780Z,59.23
2023-03-05T18:48:18.171Z,59.14
2023-03-05T18:50:46.405Z,60.23
2023-03-05T18:53:14.381Z,61.02
2023-03-05T18:55:42.841Z,59.93
2023-03-05T18:58:13.577Z,59.47
2023-03-05T19:00:43.725Z,59.50
2023-03-05T19:03:12.131Z,59.52
2023-03-05T19:05:41.812Z,60.13
2023-03-05T19:08:09.956Z,60.05
2023-03-05T19:10:37.767Z,59.03
2023-03-05T19:13:43.780Z,59.49
2023-03-05T19:16:13.717Z,59.05
2023-03-05T19:19:19.679Z,58.58
2023-03-05T19:21:53.420Z,59.00
2023-03-05T19:24:21.976Z,58.40
2023-03-05T19:26:50.425Z,59.80
2023-03-05T19:29:18.212Z,59.61
2023-03-05T19:31:45.958Z,58.56
2023-03-05T19:34:13.743Z,58.00
2023-03-05T19:36:41.495Z,57.58
2023-03-05T19:39:10.719Z,58.08
2023-03-05T19:41:38.659Z,58.75
2023-03-05T19:44:07.094Z,57.73
2023-03-05T19:46:34.844Z,58.74
2023-03-05T19:49:02.619Z,58.68
2023-03-05T19:51:30.443Z,58.14
2023-03-05T19:53:58.195Z,57.88
2023-03-05T19:56:27.432Z,58.49
2023-03-05T19:58:55.222Z,58.69
2023-03-05T20:01:25.918Z,57.90
2023-03-05T20:03:55.018Z,58.55
2023-03-05T20:06:23.600Z,58.29
2023-03-05T20:08:51.487Z,57.11
2023-03-05T20:11:21.077Z,57.13
2023-03-05T20:13:50.789Z,56.52
2023-03-05T20:16:20.110Z,57.92
2023-03-05T20:18:52.518Z,57.88
2023-03-05T20:21:23.133Z,58.26
2023-03-05T20:23:51.242Z,58.35
2023-03-05T20:26:19.577Z,58.76
2023-03-05T20:28:47.382Z,58.96
2023-03-05T20:31:19.239Z,58.50
2023-03-05T20:33:47.106Z,58.39
2023-03-05T20:36:14.944Z,58.41
2023-03-05T20:38:45.201Z,58.29
2023-03-05T20:41:15.011Z,58.60
2023-03-05T20:43:44.767Z,58.96
2023-03-05T20:46:18.881Z,59.29
2023-03-05T20:48:49.467Z,58.75
2023-03-05T20:51:20.640Z,59.65
2023-03-05T20:53:48.540Z,59.84
2023-03-05T20:56:16.592Z,62.63
2023-03-05T20:58:44.581Z,63.07
2023-03-05T21:01:12.601Z,63.49
2023-03-05T21:03:42.073Z,63.65
2023-03-05T21:06:09.874Z,65.28
2023-03-05T21:08:37.704Z,65.70
2023-03-05T21:11:07.540Z,65.53
2023-03-05T21:13:38.702Z,66.19
2023-03-05T21:16:11.639Z,66.92
2023-03-05T21:18:39.423Z,66.32
2023-03-05T21:21:09.145Z,68.33
2023-03-05T21:23:37.069Z,68.78
2023-03-05T21:26:05.074Z,70.71
2023-03-05T21:28:33.145Z,72.03
2023-03-05T21:31:07.962Z,72.55
2023-03-05T21:33:36.160Z,72.59
2023-03-05T21:36:04.560Z,77.06
2023-03-05T21:38:34.668Z,75.33
2023-03-05T21:41:03.408Z,75.99
2023-03-05T21:43:32.082Z,75.50
2023-03-05T21:46:03.066Z,74.95
2023-03-05T21:48:31.575Z,76.27
2023-03-05T21:51:00.297Z,76.02
2023-03-05T21:53:28.052Z,77.59
2023-03-05T21:56:31.038Z,77.41
2023-03-05T21:59:00.586Z,79.42
2023-03-05T22:01:28.410Z,76.52
2023-03-05T22:03:56.178Z,78.16
2023-03-05T22:06:23.959Z,75.92
2023-03-05T22:08:51.768Z,78.64
2023-03-05T22:11:20.824Z,78.25
2023-03-05T22:13:48.732Z,76.20
2023-03-05T22:16:24.317Z,78.32
2023-03-05T22:18:52.696Z,76.64
2023-03-05T22:21:22.995Z,77.97
2023-03-05T22:23:50.836Z,76.09
2023-03-05T22:26:18.592Z,77.85
2023-03-05T22:28:46.394Z,77.74
2023-03-05T22:31:22.762Z,75.39
2023-03-05T22:33:50.937Z,77.25
2023-03-05T22:36:18.855Z,76.12
2023-03-05T22:38:47.066Z,77.59
2023-03-05T22:41:16.684Z,77.27
2023-03-05T22:43:44.444Z,76.71
2023-03-05T22:46:14.010Z,74.77
2023-03-05T22:48:43.982Z,75.28
2023-03-05T22:51:12.584Z,75.39
2023-03-05T22:53:40.996Z,75.45
2023-03-05T22:56:09.844Z,75.62
2023-03-05T22:58:38.104Z,75.43
2023-03-05T23:01:13.088Z,74.01
2023-03-05T23:03:41.539Z,74.73
2023-03-05T23:06:11.488Z,74.61
2023-03-05T23:08:39.277Z,74.80
2023-03-05T23:11:11.314Z,75.95
2023-03-05T23:13:39.164Z,75.53
2023-03-05T23:16:07.697Z,75.13
2023-03-05T23:18:35.512Z,75.94
2023-03-05T23:21:03.219Z,74.95
2023-03-05T23:23:32.302Z,75.45
2023-03-05T23:26:00.299Z,74.02
2023-03-05T23:28:28.179Z,74.99
2023-03-05T23:30:55.914Z,74.54
2023-03-05T23:33:24.495Z,75.17
2023-03-05T23:35:54.548Z,74.12
2023-03-05T23:38:23.115Z,73.13
2023-03-05T23:40:54.261Z,72.84
2023-03-05T23:43:24.527Z,73.91
2023-03-05T23:45:55.013Z,71.87
2023-03-05T23:48:23.560Z,72.44
2023-03-05T23:50:51.608Z,72.55
2023-03-05T23:53:21.428Z,72.46
2023-03-05T23:55:49.536Z,71.67
2023-03-05T23:58:20.261Z,72.05
